createdAt,value
2017-09-16T00:00:36.314Z,21.97
2017-09-16T00:01:16.759Z,22
2017-09-16T00:01:57.211Z,21.92
2017-09-16T00:02:37.648Z,21.96
2017-09-16T00:03:18.095Z,21.97
2017-09-16T00:03:58.541Z,21.97
2017-09-16T00:04:38.995Z,21.96
2017-09-16T00:05:19.438Z,21.99
2017-09-16T00:05:59.887Z,21.96
2017-09-16T00:06:40.335Z,21.88
2017-09-16T00:07:20.784Z,21.99
2017-09-16T00:08:01.233Z,21.97
2017-09-16T00:08:41.681Z,21.94
2017-09-16T00:09:22.130Z,21.99
2017-09-16T00:10:02.586Z,21.89
2017-09-16T00:10:43.032Z,21.97
2017-09-16T00:11:23.476Z,21.97
2017-09-16T00:12:03.924Z,21.92
2017-09-16T00:12:44.366Z,21.99
2017-09-16T00:13:24.819Z,21.96
2017-09-16T00:14:05.259Z,21.99
2017-09-16T00:14:45.708Z,21.96
2017-09-16T00:15:26.169Z,21.89
2017-09-16T00:16:06.599Z,21.91
2017-09-16T00:16:47.046Z,21.94
2017-09-16T00:17:27.494Z,21.96
2017-09-16T00:18:07.941Z,21.91
2017-09-16T00:18:48.389Z,21.94
2017-09-16T00:19:28.839Z,21.94
2017-09-16T00:20:09.281Z,21.92
2017-09-16T00:20:49.729Z,21.88
2017-09-16T00:21:30.190Z,21.96
2017-09-16T00:22:10.633Z,21.97
2017-09-16T00:22:51.081Z,21.99
2017-09-16T00:23:31.535Z,21.92
2017-09-16T00:24:11.982Z,21.91
2017-09-16T00:24:52.436Z,21.99
2017-09-16T00:25:32.884Z,22
2017-09-16T00:26:13.346Z,22
2017-09-16T00:26:53.782Z,21.99
2017-09-16T00:27:34.236Z,22
2017-09-16T00:28:14.682Z,22.07
2017-09-16T00:28:55.131Z,22.08
2017-09-16T00:29:35.579Z,22.01
2017-09-16T00:30:16.023Z,22.04
2017-09-16T00:30:56.472Z,22.1
2017-09-16T00:31:36.920Z,22.1
2017-09-16T00:32:17.368Z,22.08
2017-09-16T00:32:57.818Z,22.08
2017-09-16T00:33:38.268Z,22.06
2017-09-16T00:34:18.721Z,22.04
2017-09-16T00:34:59.177Z,22.07
2017-09-16T00:35:39.625Z,22.06
2017-09-16T00:36:20.073Z,22.03
2017-09-16T00:37:00.523Z,22.03
2017-09-16T00:37:40.963Z,22.07
2017-09-16T00:38:21.413Z,22.04
2017-09-16T00:39:01.860Z,22.01
2017-09-16T00:39:42.308Z,22.04
2017-09-16T00:40:22.756Z,22.08
2017-09-16T00:41:03.204Z,22.07
2017-09-16T00:41:43.660Z,22.08
2017-09-16T00:42:24.101Z,22.03
2017-09-16T00:43:04.549Z,22.06
2017-09-16T00:43:44.982Z,22.06
2017-09-16T00:44:25.425Z,22.04
2017-09-16T00:45:05.865Z,22.01
2017-09-16T00:45:46.319Z,22.03
2017-09-16T00:46:26.766Z,21.99
2017-09-16T00:47:07.215Z,22.03
2017-09-16T00:47:47.663Z,22.04
2017-09-16T00:48:28.107Z,21.97
2017-09-16T00:49:08.557Z,22.06
2017-09-16T00:49:49.009Z,21.96
2017-09-16T00:50:29.452Z,21.99
2017-09-16T00:51:09.901Z,22
2017-09-16T00:51:50.346Z,22.03
2017-09-16T00:52:30.786Z,22
2017-09-16T00:53:11.242Z,22.01
2017-09-16T00:53:51.691Z,22
2017-09-16T00:54:32.135Z,22.03
2017-09-16T00:55:12.590Z,22.01
2017-09-16T00:55:53.035Z,21.96
2017-09-16T00:56:33.486Z,21.96
2017-09-16T00:57:13.969Z,21.99
2017-09-16T00:57:54.425Z,22.01
2017-09-16T00:58:34.862Z,22.01
2017-09-16T00:59:15.285Z,22
2017-09-16T00:59:55.751Z,22
2017-09-16T01:00:36.188Z,22.06
2017-09-16T01:01:16.633Z,21.99
2017-09-16T01:01:57.079Z,21.99
2017-09-16T01:02:37.531Z,21.97
2017-09-16T01:03:17.991Z,22.03
2017-09-16T01:03:58.440Z,21.99
2017-09-16T01:04:38.882Z,21.97
2017-09-16T01:05:19.323Z,22
2017-09-16T01:05:59.777Z,21.96
2017-09-16T01:06:40.217Z,21.97
2017-09-16T01:07:20.673Z,21.99
2017-09-16T01:08:01.111Z,21.99
2017-09-16T01:08:41.559Z,21.97
2017-09-16T01:09:22.026Z,22.06
2017-09-16T01:10:02.474Z,21.99
2017-09-16T01:10:42.922Z,22
2017-09-16T01:11:23.384Z,22
2017-09-16T01:12:03.820Z,21.92
2017-09-16T01:12:44.274Z,22
2017-09-16T01:13:24.729Z,22.01
2017-09-16T01:14:05.181Z,22
2017-09-16T01:14:45.633Z,21.89
2017-09-16T01:15:26.080Z,21.97
2017-09-16T01:16:06.529Z,21.97
2017-09-16T01:16:46.965Z,21.96
2017-09-16T01:17:27.413Z,21.94
2017-09-16T01:18:07.861Z,21.91
2017-09-16T01:18:48.304Z,22.01
2017-09-16T01:19:28.749Z,21.97
2017-09-16T01:20:09.193Z,22
2017-09-16T01:20:49.641Z,21.99
2017-09-16T01:21:30.079Z,21.96
2017-09-16T01:22:10.519Z,21.97
2017-09-16T01:22:50.973Z,21.91
2017-09-16T01:23:31.426Z,21.99
2017-09-16T01:24:11.875Z,22.04
2017-09-16T01:24:52.326Z,22
2017-09-16T01:25:32.777Z,22
2017-09-16T01:26:13.226Z,21.94
2017-09-16T01:26:53.675Z,21.88
2017-09-16T01:27:34.121Z,22
2017-09-16T01:28:14.570Z,21.94
2017-09-16T01:28:55.044Z,21.89
2017-09-16T01:29:35.484Z,21.92
2017-09-16T01:30:15.931Z,21.92
2017-09-16T01:30:56.380Z,21.91
2017-09-16T01:31:36.830Z,22
2017-09-16T01:32:17.278Z,21.97
2017-09-16T01:32:57.727Z,21.97
2017-09-16T01:33:38.187Z,21.88
2017-09-16T01:34:18.639Z,21.94
2017-09-16T01:34:59.090Z,21.91
2017-09-16T01:35:39.532Z,21.99
2017-09-16T01:36:19.977Z,21.96
2017-09-16T01:37:00.417Z,21.99
2017-09-16T01:37:40.864Z,22
2017-09-16T01:38:21.313Z,21.96
2017-09-16T01:39:01.761Z,21.88
2017-09-16T01:39:42.216Z,21.91
2017-09-16T01:40:22.657Z,22
2017-09-16T01:41:03.120Z,22
2017-09-16T01:41:43.523Z,21.94
2017-09-16T01:42:23.967Z,21.92
2017-09-16T01:43:04.419Z,21.94
2017-09-16T01:43:44.863Z,21.99
2017-09-16T01:44:25.312Z,21.91
2017-09-16T01:45:05.765Z,21.92
2017-09-16T01:45:46.212Z,21.97
2017-09-16T01:46:26.662Z,21.97
2017-09-16T01:47:07.108Z,21.96
2017-09-16T01:47:47.555Z,21.88
2017-09-16T01:48:28.002Z,21.96
2017-09-16T01:49:08.451Z,21.96
2017-09-16T01:49:48.906Z,21.92
2017-09-16T01:50:29.359Z,22
2017-09-16T01:51:09.804Z,21.94
2017-09-16T01:51:50.254Z,21.91
2017-09-16T01:52:30.694Z,21.89
2017-09-16T01:53:11.140Z,21.94
2017-09-16T01:53:51.590Z,21.94
2017-09-16T01:54:32.037Z,21.97
2017-09-16T01:55:12.483Z,21.84
2017-09-16T01:55:52.935Z,21.92
2017-09-16T01:56:33.395Z,21.89
2017-09-16T01:57:13.844Z,21.88
2017-09-16T01:57:54.297Z,21.91
2017-09-16T01:58:34.745Z,21.91
2017-09-16T01:59:15.199Z,21.91
2017-09-16T01:59:55.649Z,21.94
2017-09-16T02:00:36.097Z,21.92
2017-09-16T02:01:16.545Z,21.81
2017-09-16T02:01:56.997Z,21.88
2017-09-16T02:02:37.443Z,21.89
2017-09-16T02:03:17.890Z,21.88
2017-09-16T02:03:58.339Z,21.83
2017-09-16T02:04:38.785Z,21.91
2017-09-16T02:05:19.235Z,21.84
2017-09-16T02:05:59.683Z,21.89
2017-09-16T02:06:40.131Z,21.88
2017-09-16T02:07:20.579Z,21.89
2017-09-16T02:08:01.033Z,21.81
2017-09-16T02:08:41.480Z,21.88
2017-09-16T02:09:21.936Z,21.84
2017-09-16T02:10:02.384Z,21.88
2017-09-16T02:10:42.833Z,21.85
2017-09-16T02:11:23.284Z,21.88
2017-09-16T02:12:03.735Z,21.85
2017-09-16T02:12:44.182Z,21.89
2017-09-16T02:13:24.633Z,21.91
2017-09-16T02:14:05.084Z,21.88
2017-09-16T02:14:45.532Z,21.92
2017-09-16T02:15:25.983Z,21.83
2017-09-16T02:16:06.432Z,21.84
2017-09-16T02:16:46.872Z,21.85
2017-09-16T02:17:27.330Z,21.89
2017-09-16T02:18:07.779Z,21.85
2017-09-16T02:18:48.226Z,21.84
2017-09-16T02:19:28.676Z,21.88
2017-09-16T02:20:09.130Z,21.84
2017-09-16T02:20:49.578Z,21.8
2017-09-16T02:21:30.030Z,21.83
2017-09-16T02:22:10.474Z,21.81
2017-09-16T02:22:50.925Z,21.84
2017-09-16T02:23:31.370Z,21.85
2017-09-16T02:24:11.822Z,21.83
2017-09-16T02:24:52.271Z,21.83
2017-09-16T02:25:32.711Z,21.8
2017-09-16T02:26:13.168Z,21.91
2017-09-16T02:26:53.637Z,21.8
2017-09-16T02:27:34.095Z,21.85
2017-09-16T02:28:14.540Z,21.81
2017-09-16T02:28:54.989Z,21.81
2017-09-16T02:29:35.435Z,21.84
2017-09-16T02:30:15.884Z,21.81
2017-09-16T02:30:56.332Z,21.8
2017-09-16T02:31:36.781Z,21.69
2017-09-16T02:32:17.227Z,21.75
2017-09-16T02:32:57.679Z,21.8
2017-09-16T02:33:38.131Z,21.83
2017-09-16T02:34:18.580Z,21.69
2017-09-16T02:34:59.030Z,21.83
2017-09-16T02:35:39.483Z,21.89
2017-09-16T02:36:19.940Z,21.83
2017-09-16T02:37:00.393Z,21.78
2017-09-16T02:37:40.849Z,21.78
2017-09-16T02:38:21.297Z,21.83
2017-09-16T02:39:01.786Z,21.8
2017-09-16T02:39:42.192Z,21.78
2017-09-16T02:40:22.641Z,21.84
2017-09-16T02:41:03.100Z,21.75
2017-09-16T02:41:43.538Z,21.81
2017-09-16T02:42:23.983Z,21.81
2017-09-16T02:43:04.428Z,21.8
2017-09-16T02:43:44.879Z,21.78
2017-09-16T02:44:25.332Z,21.77
2017-09-16T02:45:05.785Z,21.77
2017-09-16T02:45:46.233Z,21.75
2017-09-16T02:46:26.683Z,21.84
2017-09-16T02:47:07.127Z,21.81
2017-09-16T02:47:47.567Z,21.78
2017-09-16T02:48:28.020Z,21.72
2017-09-16T02:49:08.471Z,21.8
2017-09-16T02:49:48.924Z,21.78
2017-09-16T02:50:29.373Z,21.78
2017-09-16T02:51:09.824Z,21.8
2017-09-16T02:51:50.271Z,21.77
2017-09-16T02:52:30.713Z,21.74
2017-09-16T02:53:11.161Z,21.7
2017-09-16T02:53:51.607Z,21.75
2017-09-16T02:54:32.043Z,21.75
2017-09-16T02:55:12.490Z,21.75
2017-09-16T02:55:52.944Z,21.81
2017-09-16T02:56:33.382Z,21.77
2017-09-16T02:57:13.835Z,21.8
2017-09-16T02:57:54.280Z,21.8
2017-09-16T02:58:34.733Z,21.72
2017-09-16T02:59:15.182Z,21.78
2017-09-16T02:59:55.630Z,21.83
2017-09-16T03:00:36.079Z,21.77
2017-09-16T03:01:16.528Z,21.78
2017-09-16T03:01:56.981Z,21.77
2017-09-16T03:02:37.433Z,21.72
2017-09-16T03:03:17.881Z,21.77
2017-09-16T03:03:58.330Z,21.78
2017-09-16T03:04:38.783Z,21.81
2017-09-16T03:05:19.229Z,21.77
2017-09-16T03:05:59.677Z,21.8
2017-09-16T03:06:40.134Z,21.81
2017-09-16T03:07:20.582Z,21.77
2017-09-16T03:08:01.033Z,21.8
2017-09-16T03:08:41.496Z,21.75
2017-09-16T03:09:21.943Z,21.77
2017-09-16T03:10:02.394Z,21.77
2017-09-16T03:10:42.844Z,21.77
2017-09-16T03:11:23.294Z,21.77
2017-09-16T03:12:03.743Z,21.81
2017-09-16T03:12:44.199Z,21.77
2017-09-16T03:13:24.647Z,21.78
2017-09-16T03:14:05.109Z,21.77
2017-09-16T03:14:45.556Z,21.77
2017-09-16T03:15:26.005Z,21.84
2017-09-16T03:16:06.460Z,21.7
2017-09-16T03:16:46.907Z,21.74
2017-09-16T03:17:27.355Z,21.69
2017-09-16T03:18:07.810Z,21.78
2017-09-16T03:18:48.253Z,21.75
2017-09-16T03:19:28.716Z,21.74
2017-09-16T03:20:09.161Z,21.77
2017-09-16T03:20:49.608Z,21.74
2017-09-16T03:21:30.054Z,21.77
2017-09-16T03:22:10.511Z,21.77
2017-09-16T03:22:50.959Z,21.8
2017-09-16T03:23:31.410Z,21.8
2017-09-16T03:24:11.867Z,21.75
2017-09-16T03:24:52.315Z,21.8
2017-09-16T03:25:32.765Z,21.74
2017-09-16T03:26:13.216Z,21.74
2017-09-16T03:26:53.663Z,21.77
2017-09-16T03:27:34.110Z,21.8
2017-09-16T03:28:14.566Z,21.77
2017-09-16T03:28:55.015Z,21.83
2017-09-16T03:29:35.466Z,21.72
2017-09-16T03:30:15.925Z,21.74
2017-09-16T03:30:56.377Z,21.72
2017-09-16T03:31:36.830Z,21.75
2017-09-16T03:32:17.275Z,21.78
2017-09-16T03:32:57.732Z,21.77
2017-09-16T03:33:38.187Z,21.72
2017-09-16T03:34:18.629Z,21.74
2017-09-16T03:34:59.076Z,21.75
2017-09-16T03:35:39.523Z,21.74
2017-09-16T03:36:19.973Z,21.77
2017-09-16T03:37:00.426Z,21.78
2017-09-16T03:37:40.874Z,21.8
2017-09-16T03:38:21.321Z,21.74
2017-09-16T03:39:01.783Z,21.7
2017-09-16T03:39:42.226Z,21.77
2017-09-16T03:40:22.674Z,21.72
2017-09-16T03:41:03.123Z,21.74
2017-09-16T03:41:43.572Z,21.77
2017-09-16T03:42:24.026Z,21.75
2017-09-16T03:43:04.470Z,21.75
2017-09-16T03:43:44.919Z,21.72
2017-09-16T03:44:25.370Z,21.72
2017-09-16T03:45:05.825Z,21.7
2017-09-16T03:45:46.283Z,21.72
2017-09-16T03:46:26.722Z,21.74
2017-09-16T03:47:07.177Z,21.75
2017-09-16T03:47:47.621Z,21.72
2017-09-16T03:48:28.073Z,21.74
2017-09-16T03:49:08.522Z,21.68
2017-09-16T03:49:48.968Z,21.74
2017-09-16T03:50:29.411Z,21.72
2017-09-16T03:51:09.865Z,21.7
2017-09-16T03:51:50.308Z,21.75
2017-09-16T03:52:30.763Z,21.74
2017-09-16T03:53:11.211Z,21.74
2017-09-16T03:53:51.646Z,21.77
2017-09-16T03:54:32.097Z,21.78
2017-09-16T03:55:12.547Z,21.72
2017-09-16T03:55:52.997Z,21.78
2017-09-16T03:56:33.446Z,21.75
2017-09-16T03:57:13.894Z,21.78
2017-09-16T03:57:54.339Z,21.74
2017-09-16T03:58:34.786Z,21.77
2017-09-16T03:59:15.240Z,21.7
2017-09-16T03:59:55.685Z,21.8
2017-09-16T04:00:36.138Z,21.8
2017-09-16T04:01:16.586Z,21.75
2017-09-16T04:01:57.035Z,21.8
2017-09-16T04:02:37.482Z,21.81
2017-09-16T04:03:17.933Z,21.83
2017-09-16T04:03:58.383Z,21.78
2017-09-16T04:04:38.818Z,21.85
2017-09-16T04:05:19.283Z,21.85
2017-09-16T04:05:59.733Z,21.88
2017-09-16T04:06:40.181Z,21.88
2017-09-16T04:07:20.628Z,21.83
2017-09-16T04:08:01.077Z,21.91
2017-09-16T04:08:41.534Z,21.83
2017-09-16T04:09:21.969Z,21.8
2017-09-16T04:10:02.408Z,21.84
2017-09-16T04:10:42.855Z,21.92
2017-09-16T04:11:23.303Z,21.92
2017-09-16T04:12:03.750Z,21.94
2017-09-16T04:12:44.206Z,21.94
2017-09-16T04:13:24.644Z,22
2017-09-16T04:14:05.093Z,22
2017-09-16T04:14:45.548Z,22
2017-09-16T04:15:25.993Z,22.04
2017-09-16T04:16:06.439Z,21.97
2017-09-16T04:16:46.896Z,22
2017-09-16T04:17:27.342Z,22.12
2017-09-16T04:18:07.791Z,22.06
2017-09-16T04:18:48.242Z,22.07
2017-09-16T04:19:28.692Z,22.04
2017-09-16T04:20:09.135Z,22.04
2017-09-16T04:20:49.583Z,22.01
2017-09-16T04:21:30.024Z,22.06
2017-09-16T04:22:10.473Z,22.07
2017-09-16T04:22:50.918Z,22.15
2017-09-16T04:23:31.364Z,22.18
2017-09-16T04:24:11.815Z,22.08
2017-09-16T04:24:52.267Z,22.15
2017-09-16T04:25:32.720Z,22.16
2017-09-16T04:26:13.163Z,22.15
2017-09-16T04:26:53.611Z,22.21
2017-09-16T04:27:34.071Z,22.16
2017-09-16T04:28:14.527Z,22.19
2017-09-16T04:28:54.979Z,22.14
2017-09-16T04:29:35.421Z,22.18
2017-09-16T04:30:15.871Z,22.15
2017-09-16T04:30:56.328Z,22.22
2017-09-16T04:31:36.779Z,22.12
2017-09-16T04:32:17.224Z,22.19
2017-09-16T04:32:57.690Z,22.18
2017-09-16T04:33:38.138Z,22.19
2017-09-16T04:34:18.589Z,22.15
2017-09-16T04:34:59.054Z,22.14
2017-09-16T04:35:39.476Z,22.21
2017-09-16T04:36:19.927Z,22.16
2017-09-16T04:37:00.378Z,22.21
2017-09-16T04:37:40.826Z,22.08
2017-09-16T04:38:21.272Z,22.18
2017-09-16T04:39:01.724Z,22.23
2017-09-16T04:39:42.182Z,22.16
2017-09-16T04:40:22.637Z,22.16
2017-09-16T04:41:03.080Z,22.21
2017-09-16T04:41:43.530Z,22.15
2017-09-16T04:42:23.976Z,22.1
2017-09-16T04:43:04.423Z,22.18
2017-09-16T04:43:44.867Z,22.15
2017-09-16T04:44:25.315Z,22.21
2017-09-16T04:45:05.755Z,22.15
2017-09-16T04:45:46.202Z,22.22
2017-09-16T04:46:26.654Z,22.16
2017-09-16T04:47:07.105Z,22.15
2017-09-16T04:47:47.544Z,22.18
2017-09-16T04:48:27.998Z,22.19
2017-09-16T04:49:08.453Z,22.19
2017-09-16T04:49:48.906Z,22.19
2017-09-16T04:50:29.349Z,22.15
2017-09-16T04:51:09.798Z,22.1
2017-09-16T04:51:50.249Z,22.15
2017-09-16T04:52:30.704Z,22.12
2017-09-16T04:53:11.156Z,22.18
2017-09-16T04:53:51.610Z,22.18
2017-09-16T04:54:32.065Z,22.16
2017-09-16T04:55:12.521Z,22.07
2017-09-16T04:55:52.967Z,22.16
2017-09-16T04:56:33.424Z,22.1
2017-09-16T04:57:13.863Z,22.16
2017-09-16T04:57:54.316Z,22.12
2017-09-16T04:58:34.768Z,22.08
2017-09-16T04:59:15.216Z,22.16
2017-09-16T04:59:55.678Z,22.15
2017-09-16T05:00:36.256Z,22.18
2017-09-16T05:01:16.702Z,22.06
2017-09-16T05:01:57.147Z,22.07
2017-09-16T05:02:37.590Z,22.12
2017-09-16T05:03:18.049Z,22.03
2017-09-16T05:03:58.515Z,22.08
2017-09-16T05:04:38.964Z,22.08
2017-09-16T05:05:19.412Z,22.04
2017-09-16T05:05:59.869Z,22.07
2017-09-16T05:06:40.313Z,22.07
2017-09-16T05:07:20.768Z,22.1
2017-09-16T05:08:01.215Z,22.06
2017-09-16T05:08:41.670Z,22.12
2017-09-16T05:09:22.152Z,22.06
2017-09-16T05:10:02.598Z,22.08
2017-09-16T05:10:43.042Z,22.07
2017-09-16T05:11:23.489Z,22.03
2017-09-16T05:12:03.942Z,22.07
2017-09-16T05:12:44.389Z,22.08
2017-09-16T05:13:24.838Z,22.07
2017-09-16T05:14:05.285Z,22.06
2017-09-16T05:14:45.747Z,22.07
2017-09-16T05:15:26.197Z,21.99
2017-09-16T05:16:06.643Z,22.06
2017-09-16T05:16:47.093Z,22.04
2017-09-16T05:17:27.537Z,22.04
2017-09-16T05:18:07.986Z,22.04
2017-09-16T05:18:48.438Z,21.97
2017-09-16T05:19:28.862Z,22.06
2017-09-16T05:20:09.626Z,22.06
2017-09-16T05:20:50.074Z,22
2017-09-16T05:21:30.527Z,22
2017-09-16T05:22:10.985Z,21.96
2017-09-16T05:22:51.437Z,22.03
2017-09-16T05:23:31.884Z,22.04
2017-09-16T05:24:12.333Z,22.03
2017-09-16T05:24:52.775Z,22.01
2017-09-16T05:25:33.228Z,22.01
2017-09-16T05:26:13.668Z,22.04
2017-09-16T05:26:54.121Z,22.03
2017-09-16T05:27:34.570Z,22
2017-09-16T05:28:15.011Z,21.94
2017-09-16T05:28:55.457Z,22.04
2017-09-16T05:29:35.907Z,22
2017-09-16T05:30:16.362Z,22.01
2017-09-16T05:30:56.815Z,22.04
2017-09-16T05:31:37.242Z,21.96
2017-09-16T05:32:17.677Z,22.03
2017-09-16T05:32:58.125Z,21.97
2017-09-16T05:33:38.594Z,22
2017-09-16T05:34:19.043Z,22.01
2017-09-16T05:34:59.489Z,22
2017-09-16T05:35:39.937Z,21.94
2017-09-16T05:36:20.368Z,22.04
2017-09-16T05:37:00.824Z,22
2017-09-16T05:37:41.276Z,22.01
2017-09-16T05:38:21.723Z,22
2017-09-16T05:39:02.178Z,21.99
2017-09-16T05:39:42.624Z,21.96
2017-09-16T05:40:23.069Z,21.99
2017-09-16T05:41:03.500Z,22.04
2017-09-16T05:41:43.949Z,22.01
2017-09-16T05:42:24.410Z,22.07
2017-09-16T05:43:04.861Z,22
2017-09-16T05:43:45.310Z,22.04
2017-09-16T05:44:25.755Z,21.97
2017-09-16T05:45:06.207Z,22.01
2017-09-16T05:45:46.643Z,21.99
2017-09-16T05:46:27.092Z,22
2017-09-16T05:47:07.528Z,22.08
2017-09-16T05:47:47.977Z,22.04
2017-09-16T05:48:28.427Z,22.03
2017-09-16T05:49:09.037Z,22.03
2017-09-16T05:49:49.484Z,22.06
2017-09-16T05:51:37.151Z,22.08
2017-09-16T05:52:17.598Z,22.08
2017-09-16T05:52:58.057Z,22.1
2017-09-16T05:53:38.492Z,22.07
2017-09-16T05:54:18.939Z,22.08
2017-09-16T05:54:59.380Z,22.08
2017-09-16T05:55:39.856Z,22.07
2017-09-16T05:56:20.301Z,22.07
2017-09-16T05:57:00.767Z,22.1
2017-09-16T05:57:41.216Z,22.08
2017-09-16T05:58:21.660Z,22.04
2017-09-16T05:59:02.142Z,22.12
2017-09-16T05:59:42.605Z,22.12
2017-09-16T06:00:23.055Z,22.12
2017-09-16T06:01:03.504Z,22.03
2017-09-16T06:01:43.981Z,22.07
2017-09-16T06:02:24.435Z,22.12
2017-09-16T06:03:04.901Z,22.01
2017-09-16T06:03:45.314Z,22.01
2017-09-16T06:04:25.732Z,22.06
2017-09-16T06:05:06.183Z,22.15
2017-09-16T06:05:46.633Z,22.12
2017-09-16T06:06:27.080Z,22.14
2017-09-16T06:07:07.518Z,22.22
2017-09-16T06:07:47.963Z,22.18
2017-09-16T06:08:28.416Z,22.18
2017-09-16T06:09:08.868Z,22.18
2017-09-16T06:09:49.307Z,22.16
2017-09-16T06:10:29.764Z,22.15
2017-09-16T06:11:10.213Z,22.18
2017-09-16T06:11:50.678Z,22.15
2017-09-16T06:12:31.128Z,22.14
2017-09-16T06:13:11.573Z,22.14
2017-09-16T06:13:52.002Z,22.21
2017-09-16T06:14:32.444Z,22.19
2017-09-16T06:15:12.891Z,22.21
2017-09-16T06:15:53.336Z,22.19
2017-09-16T06:16:33.778Z,22.15
2017-09-16T06:17:14.215Z,22.18
2017-09-16T06:17:54.659Z,22.23
2017-09-16T06:18:35.160Z,22.22
2017-09-16T06:19:15.598Z,22.28
2017-09-16T06:19:56.079Z,22.23
2017-09-16T06:20:36.687Z,22.28
2017-09-16T06:21:17.150Z,22.23
2017-09-16T06:21:57.585Z,22.23
2017-09-16T06:22:38.026Z,22.26
2017-09-16T06:23:18.469Z,22.3
2017-09-16T06:23:58.918Z,22.34
2017-09-16T06:24:39.353Z,22.31
2017-09-16T06:25:19.802Z,22.3
2017-09-16T06:26:00.252Z,22.33
2017-09-16T06:26:40.705Z,22.3
2017-09-16T06:27:21.153Z,22.25
2017-09-16T06:28:01.599Z,22.31
2017-09-16T06:28:42.047Z,22.36
2017-09-16T06:29:22.492Z,22.31
2017-09-16T06:30:02.939Z,22.34
2017-09-16T06:30:43.382Z,22.38
2017-09-16T06:31:23.823Z,22.38
2017-09-16T06:32:04.255Z,22.47
2017-09-16T06:32:44.690Z,22.43
2017-09-16T06:33:25.116Z,22.38
2017-09-16T06:34:05.645Z,22.4
2017-09-16T06:35:43.070Z,22.4
2017-09-16T06:36:23.512Z,22.43
2017-09-16T06:37:03.967Z,22.41
2017-09-16T06:37:44.409Z,22.43
2017-09-16T06:38:24.842Z,22.47
2017-09-16T06:39:05.275Z,22.52
2017-09-16T06:39:45.725Z,22.51
2017-09-16T06:40:26.159Z,22.51
2017-09-16T06:41:06.601Z,22.51
2017-09-16T06:41:46.988Z,22.51
2017-09-16T06:42:27.380Z,22.49
2017-09-16T06:43:07.802Z,22.55
2017-09-16T06:43:48.205Z,22.53
2017-09-16T06:44:28.631Z,22.53
2017-09-16T06:45:09.065Z,22.55
2017-09-16T06:45:49.505Z,22.56
2017-09-16T06:46:29.967Z,22.46
2017-09-16T06:47:10.416Z,22.55
2017-09-16T06:47:50.865Z,22.55
2017-09-16T06:48:31.357Z,22.61
2017-09-16T06:50:44.116Z,22.63
2017-09-16T06:51:24.570Z,22.59
2017-09-16T06:52:05.018Z,22.59
2017-09-16T06:52:45.456Z,22.68
2017-09-16T06:53:25.890Z,22.67
2017-09-16T06:54:06.336Z,22.62
2017-09-16T06:54:46.780Z,22.74
2017-09-16T06:55:27.234Z,22.74
2017-09-16T06:56:07.682Z,22.73
2017-09-16T06:56:48.124Z,22.7
2017-09-16T06:57:28.569Z,22.71
2017-09-16T06:58:09.016Z,22.73
2017-09-16T06:58:49.486Z,22.71
2017-09-16T06:59:29.919Z,22.68
2017-09-16T07:00:10.364Z,22.77
2017-09-16T07:00:50.800Z,22.78
2017-09-16T07:01:31.250Z,22.78
2017-09-16T07:02:11.727Z,22.88
2017-09-16T07:02:52.168Z,22.81
2017-09-16T07:03:32.637Z,22.81
2017-09-16T07:04:13.081Z,22.88
2017-09-16T07:04:53.528Z,22.84
2017-09-16T07:05:33.983Z,22.92
2017-09-16T07:06:14.431Z,22.95
2017-09-16T07:06:54.901Z,22.92
2017-09-16T07:07:35.323Z,22.98
2017-09-16T07:08:15.773Z,22.95
2017-09-16T07:08:56.227Z,22.91
2017-09-16T07:09:36.674Z,22.99
2017-09-16T07:10:17.123Z,23.01
2017-09-16T07:10:57.571Z,23.06
2017-09-16T07:11:38.020Z,22.99
2017-09-16T07:12:18.481Z,23.01
2017-09-16T07:12:58.928Z,23.04
2017-09-16T07:13:39.390Z,23.06
2017-09-16T07:14:19.831Z,23.1
2017-09-16T07:15:00.281Z,23.13
2017-09-16T07:15:40.728Z,23.13
2017-09-16T07:16:21.177Z,23.08
2017-09-16T07:17:01.625Z,23.11
2017-09-16T07:18:54.166Z,23.29
2017-09-16T07:19:34.613Z,23.25
2017-09-16T07:20:15.067Z,23.39
2017-09-16T07:20:55.515Z,23.32
2017-09-16T07:21:35.954Z,23.25
2017-09-16T07:22:16.416Z,23.44
2017-09-16T07:22:56.871Z,23.29
2017-09-16T07:23:37.321Z,23.4
2017-09-16T07:24:17.777Z,23.51
2017-09-16T07:24:58.222Z,23.45
2017-09-16T07:25:38.681Z,23.45
2017-09-16T07:26:19.119Z,23.47
2017-09-16T07:26:59.569Z,23.52
2017-09-16T07:27:40.017Z,23.52
2017-09-16T07:28:20.459Z,23.56
2017-09-16T07:29:00.912Z,23.52
2017-09-16T07:29:41.351Z,23.56
2017-09-16T07:30:21.796Z,23.55
2017-09-16T07:31:02.250Z,23.55
2017-09-16T07:31:42.697Z,23.67
2017-09-16T07:32:23.144Z,23.63
2017-09-16T07:33:03.592Z,23.64
2017-09-16T07:33:44.035Z,23.64
2017-09-16T07:34:24.483Z,23.66
2017-09-16T07:35:04.934Z,23.66
2017-09-16T07:35:45.382Z,23.7
2017-09-16T07:36:25.834Z,23.7
2017-09-16T07:37:06.296Z,23.7
2017-09-16T07:37:46.734Z,23.64
2017-09-16T07:38:27.180Z,23.76
2017-09-16T07:39:07.628Z,23.7
2017-09-16T07:39:48.097Z,23.71
2017-09-16T07:40:28.543Z,23.86
2017-09-16T07:41:08.984Z,23.84
2017-09-16T07:41:49.431Z,23.91
2017-09-16T07:42:30.026Z,23.88
2017-09-16T07:43:10.468Z,23.99
2017-09-16T07:43:50.914Z,23.91
2017-09-16T07:44:31.347Z,24
2017-09-16T07:45:11.793Z,23.95
2017-09-16T07:45:52.242Z,23.96
2017-09-16T07:46:32.690Z,23.96
2017-09-16T07:47:13.142Z,23.96
2017-09-16T07:47:53.588Z,24.01
2017-09-16T07:48:34.029Z,24.01
2017-09-16T07:49:14.479Z,24.09
2017-09-16T07:49:54.929Z,24.01
2017-09-16T07:50:35.361Z,24.04
2017-09-16T07:51:16.023Z,24.03
2017-09-16T07:51:56.636Z,24.09
2017-09-16T07:52:37.138Z,24.09
2017-09-16T07:53:17.560Z,24.13
2017-09-16T07:53:58.053Z,24.13
2017-09-16T07:54:38.451Z,24.16
2017-09-16T07:55:18.902Z,24.16
2017-09-16T07:55:59.353Z,24.16
2017-09-16T07:56:39.802Z,24.16
2017-09-16T07:57:20.249Z,24.25
2017-09-16T07:58:00.702Z,24.29
2017-09-16T07:58:41.153Z,24.22
2017-09-16T07:59:21.594Z,24.32
2017-09-16T08:00:02.053Z,24.37
2017-09-16T08:00:42.490Z,24.36
2017-09-16T08:01:22.937Z,24.37
2017-09-16T08:02:03.383Z,24.36
2017-09-16T08:02:43.835Z,24.38
2017-09-16T08:03:24.280Z,24.44
2017-09-16T08:04:04.739Z,24.48
2017-09-16T08:04:45.164Z,24.47
2017-09-16T08:05:25.607Z,24.51
2017-09-16T08:06:06.048Z,24.48
2017-09-16T08:06:46.492Z,24.55
2017-09-16T08:07:26.947Z,24.58
2017-09-16T08:08:07.389Z,24.62
2017-09-16T08:08:47.834Z,24.56
2017-09-16T08:09:28.274Z,24.62
2017-09-16T08:10:08.720Z,24.61
2017-09-16T08:10:49.171Z,24.68
2017-09-16T08:11:29.620Z,24.66
2017-09-16T08:12:10.066Z,24.68
2017-09-16T08:12:50.508Z,24.75
2017-09-16T08:13:30.952Z,24.68
2017-09-16T08:14:11.401Z,24.78
2017-09-16T08:14:51.865Z,24.81
2017-09-16T08:15:32.296Z,24.84
2017-09-16T08:16:12.739Z,24.86
2017-09-16T08:16:53.189Z,24.85
2017-09-16T08:17:33.631Z,24.85
2017-09-16T08:18:14.088Z,24.92
2017-09-16T08:18:54.528Z,24.85
2017-09-16T08:19:34.977Z,24.86
2017-09-16T08:20:15.412Z,24.94
2017-09-16T08:20:55.856Z,24.99
2017-09-16T08:21:36.303Z,25.01
2017-09-16T08:22:16.747Z,24.97
2017-09-16T08:22:57.205Z,24.94
2017-09-16T08:23:37.650Z,25.12
2017-09-16T08:24:18.106Z,24.97
2017-09-16T08:24:58.548Z,24.96
2017-09-16T08:25:39.014Z,25.04
2017-09-16T08:26:19.415Z,25.07
2017-09-16T08:26:59.864Z,25.01
2017-09-16T08:27:40.321Z,25.04
2017-09-16T08:28:20.768Z,25.11
2017-09-16T08:29:01.240Z,25.12
2017-09-16T08:29:41.687Z,25.03
2017-09-16T08:30:22.130Z,25.14
2017-09-16T08:31:02.582Z,25.15
2017-09-16T08:31:43.026Z,25.15
2017-09-16T08:32:23.483Z,25.15
2017-09-16T08:33:03.931Z,25.21
2017-09-16T08:33:44.376Z,25.21
2017-09-16T08:34:24.823Z,25.16
2017-09-16T08:35:05.254Z,25.24
2017-09-16T08:35:45.719Z,25.18
2017-09-16T08:36:26.172Z,25.21
2017-09-16T08:37:06.619Z,25.21
2017-09-16T08:37:47.065Z,25.15
2017-09-16T08:38:27.521Z,25.29
2017-09-16T08:39:07.973Z,25.24
2017-09-16T08:39:48.418Z,25.25
2017-09-16T08:40:28.862Z,25.21
2017-09-16T08:41:09.312Z,25.3
2017-09-16T08:41:49.750Z,25.25
2017-09-16T08:42:30.194Z,25.33
2017-09-16T08:43:10.644Z,25.4
2017-09-16T08:43:51.426Z,25.31
2017-09-16T08:44:31.887Z,25.4
2017-09-16T08:46:29.596Z,25.41
2017-09-16T08:47:10.047Z,25.44
2017-09-16T08:47:50.488Z,25.41
2017-09-16T08:48:30.933Z,25.46
2017-09-16T08:49:11.374Z,25.44
2017-09-16T08:49:51.832Z,25.55
2017-09-16T08:50:32.281Z,25.51
2017-09-16T08:51:12.739Z,25.46